Pietermaritzburg, South Africa
Current Conditions -  °F | °C
As of 2:00 AM on Wednesday 22 Oct 2014 (Local Time) from FALE Reporting Station
Broken Clouds Broken Clouds  
Wind Chill: 63°   Ceiling: 7900
Heat Index: 63°   Visibility: 6mi
Dew Point: 59°   Wind: 0mph
Humidity: 88%   Direction: NA
Pressure: 30.21"   Gusts: NA
Location:  29.61°S, 30.39°E
Report Text: FALE 220000Z 00000KT 9999 FEW025 SCT050 BKN079 17/15 Q1023 NOSIG
Loading
Personal Weather Stations






























Interactive Weather Map
Tropical Storm Tracking
New forecast layout! Learn more

10-Day Weather Forecast

Advertisements
Track Severe Weather on mobile